sensor_id;sensor_type;location;lat;lon;timestamp;pressure;altitude;pressure_sealevel;temperature;humidity
48796;BME280;34607;48.520;-1.330;2023-04-29T07:30:39;100536.97;;;11.88;100.00
48796;BME280;34607;48.520;-1.330;2023-04-29T07:33:09;100534.34;;;11.86;100.00
48796;BME280;34607;48.520;-1.330;2023-04-29T07:35:36;100541.38;;;11.92;100.00
48796;BME280;34607;48.520;-1.330;2023-04-29T07:38:06;100546.56;;;11.92;100.00
48796;BME280;34607;48.520;-1.330;2023-04-29T07:40:33;100557.91;;;11.98;100.00
48796;BME280;34607;48.520;-1.330;2023-04-29T07:43:00;100539.75;;;11.98;100.00
48796;BME280;34607;48.520;-1.330;2023-04-29T07:45:30;100554.59;;;12.10;100.00
48796;BME280;34607;48.520;-1.330;2023-04-29T07:47:59;100558.94;;;12.11;100.00
48796;BME280;34607;48.520;-1.330;2023-04-29T07:50:26;100558.16;;;12.17;100.00
48796;BME280;34607;48.520;-1.330;2023-04-29T07:52:53;100568.44;;;12.09;100.00
48796;BME280;34607;48.520;-1.330;2023-04-29T07:55:22;100562.41;;;12.12;100.00
48796;BME280;34607;48.520;-1.330;2023-04-29T07:57:51;100570.28;;;12.18;100.00
48796;BME280;34607;48.520;-1.330;2023-04-29T08:00:18;100567.78;;;12.26;100.00
48796;BME280;34607;48.520;-1.330;2023-04-29T08:02:49;100570.44;;;12.29;100.00
48796;BME280;34607;48.520;-1.330;2023-04-29T08:05:18;100574.03;;;12.40;100.00
48796;BME280;34607;48.520;-1.330;2023-04-29T08:07:46;100581.91;;;12.46;100.00
48796;BME280;34607;48.520;-1.330;2023-04-29T08:10:17;100575.00;;;12.50;100.00
48796;BME280;34607;48.520;-1.330;2023-04-29T08:12:48;100581.03;;;12.47;100.00
48796;BME280;34607;48.520;-1.330;2023-04-29T08:15:15;100573.31;;;12.53;100.00
48796;BME280;34607;48.520;-1.330;2023-04-29T08:17:43;100569.00;;;12.54;100.00
48796;BME280;34607;48.520;-1.330;2023-04-29T08:20:11;100579.53;;;12.66;100.00
48796;BME280;34607;48.520;-1.330;2023-04-29T08:22:39;100555.06;;;12.49;100.00
48796;BME280;34607;48.520;-1.330;2023-04-29T08:25:07;100584.84;;;12.76;100.00
48796;BME280;34607;48.520;-1.330;2023-04-29T08:27:35;100591.00;;;12.85;100.00
48796;BME280;34607;48.520;-1.330;2023-04-29T08:30:02;100580.72;;;12.96;100.00
48796;BME280;34607;48.520;-1.330;2023-04-29T08:32:29;100579.09;;;13.09;100.00
48796;BME280;34607;48.520;-1.330;2023-04-29T08:34:56;100571.41;;;13.18;100.00
48796;BME280;34607;48.520;-1.330;2023-04-29T08:37:23;100568.00;;;13.25;100.00
48796;BME280;34607;48.520;-1.330;2023-04-29T08:39:52;100570.56;;;13.22;100.00
48796;BME280;34607;48.520;-1.330;2023-04-29T08:42:31;100550.63;;;13.20;100.00
48796;BME280;34607;48.520;-1.330;2023-04-29T08:44:59;100561.84;;;13.16;100.00
48796;BME280;34607;48.520;-1.330;2023-04-29T08:47:28;100568.88;;;13.27;100.00
48796;BME280;34607;48.520;-1.330;2023-04-29T08:49:56;100565.50;;;13.32;100.00
48796;BME280;34607;48.520;-1.330;2023-04-29T08:52:24;100579.50;;;13.49;100.00
48796;BME280;34607;48.520;-1.330;2023-04-29T08:54:52;100577.03;;;13.64;100.00
48796;BME280;34607;48.520;-1.330;2023-04-29T08:57:20;100584.03;;;13.75;100.00
48796;BME280;34607;48.520;-1.330;2023-04-29T08:59:48;100574.50;;;13.75;100.00
48796;BME280;34607;48.520;-1.330;2023-04-29T09:02:15;100569.28;;;13.77;100.00
48796;BME280;34607;48.520;-1.330;2023-04-29T09:04:47;100584.91;;;13.77;100.00
48796;BME280;34607;48.520;-1.330;2023-04-29T09:07:18;100562.31;;;13.70;100.00
48796;BME280;34607;48.520;-1.330;2023-04-29T09:09:45;100584.06;;;13.81;100.00
48796;BME280;34607;48.520;-1.330;2023-04-29T09:12:14;100582.31;;;13.77;100.00
48796;BME280;34607;48.520;-1.330;2023-04-29T09:14:41;100584.03;;;13.75;100.00
48796;BME280;34607;48.520;-1.330;2023-04-29T09:17:08;100574.38;;;13.60;100.00
48796;BME280;34607;48.520;-1.330;2023-04-29T09:19:36;100567.44;;;13.60;100.00
48796;BME280;34607;48.520;-1.330;2023-04-29T09:22:04;100593.66;;;13.85;100.00
48796;BME280;34607;48.520;-1.330;2023-04-29T09:24:32;100594.50;;;13.84;100.00
48796;BME280;34607;48.520;-1.330;2023-04-29T09:26:59;100589.31;;;13.87;100.00
48796;BME280;34607;48.520;-1.330;2023-04-29T09:29:29;100595.53;;;14.09;100.00
48796;BME280;34607;48.520;-1.330;2023-04-29T09:31:57;100592.16;;;14.29;100.00
48796;BME280;34607;48.520;-1.330;2023-04-29T09:34:32;100583.44;;;14.22;100.00
48796;BME280;34607;48.520;-1.330;2023-04-29T09:37:00;100591.31;;;14.31;100.00
48796;BME280;34607;48.520;-1.330;2023-04-29T09:39:37;100591.31;;;14.33;100.00
48796;BME280;34607;48.520;-1.330;2023-04-29T09:42:04;100600.91;;;14.38;100.00
48796;BME280;34607;48.520;-1.330;2023-04-29T09:44:34;100586.16;;;14.47;100.00
48796;BME280;34607;48.520;-1.330;2023-04-29T09:47:03;100582.69;;;14.43;100.00
48796;BME280;34607;48.520;-1.330;2023-04-29T09:49:36;100608.78;;;14.52;100.00
48796;BME280;34607;48.520;-1.330;2023-04-29T09:52:06;100603.63;;;14.58;100.00
48796;BME280;34607;48.520;-1.330;2023-04-29T09:55:04;100610.59;;;14.64;100.00
48796;BME280;34607;48.520;-1.330;2023-04-29T09:57:38;100601.00;;;14.61;100.00
48796;BME280;34607;48.520;-1.330;2023-04-29T10:00:09;100605.28;;;14.47;100.00
48796;BME280;34607;48.520;-1.330;2023-04-29T10:02:40;100596.50;;;14.28;100.00
48796;BME280;34607;48.520;-1.330;2023-04-29T10:05:13;100606.06;;;14.29;100.00
48796;BME280;34607;48.520;-1.330;2023-04-29T10:07:40;100607.03;;;14.53;100.00
48796;BME280;34607;48.520;-1.330;2023-04-29T10:10:09;100557.44;;;14.36;100.00
48796;BME280;34607;48.520;-1.330;2023-04-29T10:12:39;100605.41;;;14.76;100.00
48796;BME280;34607;48.520;-1.330;2023-04-29T10:15:16;100612.41;;;14.88;100.00
48796;BME280;34607;48.520;-1.330;2023-04-29T10:17:50;100608.91;;;14.83;100.00
48796;BME280;34607;48.520;-1.330;2023-04-29T10:20:22;100613.22;;;14.73;100.00
48796;BME280;34607;48.520;-1.330;2023-04-29T10:22:50;100592.41;;;14.84;100.00
48796;BME280;34607;48.520;-1.330;2023-04-29T10:25:20;100614.22;;;15.19;100.00
48796;BME280;34607;48.520;-1.330;2023-04-29T10:27:48;100606.41;;;15.29;100.00
48796;BME280;34607;48.520;-1.330;2023-04-29T10:30:19;100602.03;;;15.59;100.00
48796;BME280;34607;48.520;-1.330;2023-04-29T10:32:48;100606.41;;;15.74;99.33
48796;BME280;34607;48.520;-1.330;2023-04-29T10:35:16;100590.78;;;15.80;99.08
48796;BME280;34607;48.520;-1.330;2023-04-29T10:37:46;100594.22;;;15.95;97.71
48796;BME280;34607;48.520;-1.330;2023-04-29T10:40:15;100604.59;;;16.22;97.34
48796;BME280;34607;48.520;-1.330;2023-04-29T10:42:47;100597.47;;;16.67;97.06
48796;BME280;34607;48.520;-1.330;2023-04-29T10:45:23;100596.50;;;16.90;95.24
48796;BME280;34607;48.520;-1.330;2023-04-29T10:48:11;100587.03;;;16.61;93.97
48796;BME280;34607;48.520;-1.330;2023-04-29T10:50:59;100594.94;;;16.49;94.47
48796;BME280;34607;48.520;-1.330;2023-04-29T10:53:26;100602.72;;;16.60;95.00
48796;BME280;34607;48.520;-1.330;2023-04-29T10:55:56;100597.53;;;16.52;94.87
48796;BME280;34607;48.520;-1.330;2023-04-29T10:58:37;100586.31;;;16.28;93.97
48796;BME280;34607;48.520;-1.330;2023-04-29T11:01:06;100597.66;;;16.23;95.71
48796;BME280;34607;48.520;-1.330;2023-04-29T11:03:50;100602.03;;;16.13;94.79
48796;BME280;34607;48.520;-1.330;2023-04-29T11:06:21;100586.38;;;15.90;95.93
48796;BME280;34607;48.520;-1.330;2023-04-29T11:08:59;100602.00;;;16.21;95.69
48796;BME280;34607;48.520;-1.330;2023-04-29T11:11:42;100601.88;;;16.56;95.54
48796;BME280;34607;48.520;-1.330;2023-04-29T11:14:12;100602.59;;;16.95;94.52
48796;BME280;34607;48.520;-1.330;2023-04-29T11:16:50;100597.28;;;17.01;92.97
48796;BME280;34607;48.520;-1.330;2023-04-29T11:19:18;100598.22;;;16.93;92.86
48796;BME280;34607;48.520;-1.330;2023-04-29T11:21:46;100599.16;;;16.78;93.41
48796;BME280;34607;48.520;-1.330;2023-04-29T11:24:13;100591.34;;;16.72;93.81
48796;BME280;34607;48.520;-1.330;2023-04-29T11:26:43;100595.56;;;17.02;93.54
48796;BME280;34607;48.520;-1.330;2023-04-29T11:29:11;100597.25;;;17.12;92.72
48796;BME280;34607;48.520;-1.330;2023-04-29T11:31:38;100578.09;;;17.07;92.59
48796;BME280;34607;48.520;-1.330;2023-04-29T11:34:06;100594.69;;;17.01;92.19
48796;BME280;34607;48.520;-1.330;2023-04-29T11:36:34;100592.13;;;16.95;92.72
48796;BME280;34607;48.520;-1.330;2023-04-29T11:39:02;100571.19;;;16.95;92.54
48796;BME280;34607;48.520;-1.330;2023-04-29T11:41:30;100579.91;;;16.94;92.34
48796;BME280;34607;48.520;-1.330;2023-04-29T11:43:58;100564.22;;;16.91;92.38
48796;BME280;34607;48.520;-1.330;2023-04-29T11:46:29;100569.44;;;16.94;91.83
48796;BME280;34607;48.520;-1.330;2023-04-29T11:48:57;100529.50;;;16.69;92.38
48796;BME280;34607;48.520;-1.330;2023-04-29T11:51:30;100562.50;;;16.93;92.05
48796;BME280;34607;48.520;-1.330;2023-04-29T11:53:57;100568.50;;;17.08;91.82
48796;BME280;34607;48.520;-1.330;2023-04-29T11:56:24;100556.03;;;17.37;90.76
48796;BME280;34607;48.520;-1.330;2023-04-29T11:58:55;100560.38;;;17.41;89.58
48796;BME280;34607;48.520;-1.330;2023-04-29T12:01:24;100555.28;;;17.26;90.05
48796;BME280;34607;48.520;-1.330;2023-04-29T12:03:56;100552.69;;;17.23;90.55
48796;BME280;34607;48.520;-1.330;2023-04-29T12:06:26;100549.22;;;17.21;90.75
48796;BME280;34607;48.520;-1.330;2023-04-29T12:08:57;100551.81;;;17.21;90.06
48796;BME280;34607;48.520;-1.330;2023-04-29T12:11:25;100559.59;;;17.29;89.45
48796;BME280;34607;48.520;-1.330;2023-04-29T12:13:52;100549.06;;;17.41;88.80
48796;BME280;34607;48.520;-1.330;2023-04-29T12:16:23;100550.72;;;17.50;88.72
48796;BME280;34607;48.520;-1.330;2023-04-29T12:18:54;100542.72;;;17.64;88.55
48796;BME280;34607;48.520;-1.330;2023-04-29T12:21:22;100539.00;;;17.91;88.75
48796;BME280;34607;48.520;-1.330;2023-04-29T12:23:50;100533.47;;;18.15;87.51
48796;BME280;34607;48.520;-1.330;2023-04-29T12:26:18;100536.94;;;18.16;87.99
48796;BME280;34607;48.520;-1.330;2023-04-29T12:28:47;100538.69;;;18.17;87.90
48796;BME280;34607;48.520;-1.330;2023-04-29T12:31:15;100544.09;;;18.03;87.84
48796;BME280;34607;48.520;-1.330;2023-04-29T12:33:42;100537.91;;;18.10;88.43
48796;BME280;34607;48.520;-1.330;2023-04-29T12:36:15;100531.75;;;18.13;88.24
48796;BME280;34607;48.520;-1.330;2023-04-29T12:38:47;100526.69;;;17.98;87.65
48796;BME280;34607;48.520;-1.330;2023-04-29T12:41:15;100532.06;;;17.82;88.50
48796;BME280;34607;48.520;-1.330;2023-04-29T12:43:44;100541.78;;;17.69;88.14
48796;BME280;34607;48.520;-1.330;2023-04-29T12:46:12;100515.34;;;17.94;87.63
48796;BME280;34607;48.520;-1.330;2023-04-29T12:48:40;100533.06;;;18.46;86.27
48796;BME280;34607;48.520;-1.330;2023-04-29T12:51:09;100531.25;;;18.51;84.80
48796;BME280;34607;48.520;-1.330;2023-04-29T12:53:39;100533.94;;;18.45;85.25
48796;BME280;34607;48.520;-1.330;2023-04-29T12:56:06;100523.72;;;18.28;84.61
48796;BME280;34607;48.520;-1.330;2023-04-29T12:58:33;100501.13;;;18.17;85.04
48796;BME280;34607;48.520;-1.330;2023-04-29T13:01:02;100526.22;;;18.36;84.43
48796;BME280;34607;48.520;-1.330;2023-04-29T13:03:29;100509.19;;;18.68;83.61
48796;BME280;34607;48.520;-1.330;2023-04-29T13:05:57;100516.88;;;18.80;83.38
48796;BME280;34607;48.520;-1.330;2023-04-29T13:08:24;100520.53;;;18.70;82.73
48796;BME280;34607;48.520;-1.330;2023-04-29T13:10:55;100516.06;;;18.75;83.37
48796;BME280;34607;48.520;-1.330;2023-04-29T13:13:22;100524.97;;;18.63;82.90
48796;BME280;34607;48.520;-1.330;2023-04-29T13:16:21;100530.00;;;18.79;81.66
48796;BME280;34607;48.520;-1.330;2023-04-29T13:18:49;100525.75;;;18.70;83.60
48796;BME280;34607;48.520;-1.330;2023-04-29T13:21:16;100521.22;;;18.81;82.40
48796;BME280;34607;48.520;-1.330;2023-04-29T13:23:43;100512.81;;;19.18;81.97
48796;BME280;34607;48.520;-1.330;2023-04-29T13:26:12;100529.84;;;18.91;81.89
48796;BME280;34607;48.520;-1.330;2023-04-29T13:28:39;100528.25;;;18.79;83.12
48796;BME280;34607;48.520;-1.330;2023-04-29T13:31:11;100522.19;;;18.76;83.13
48796;BME280;34607;48.520;-1.330;2023-04-29T13:33:39;100519.59;;;18.72;83.19
48796;BME280;34607;48.520;-1.330;2023-04-29T13:36:07;100513.69;;;19.16;82.41
48796;BME280;34607;48.520;-1.330;2023-04-29T13:38:34;100518.75;;;19.30;81.01
48796;BME280;34607;48.520;-1.330;2023-04-29T13:41:02;100527.66;;;19.71;80.08
48796;BME280;34607;48.520;-1.330;2023-04-29T13:43:29;100518.56;;;19.90;78.84
48796;BME280;34607;48.520;-1.330;2023-04-29T13:45:56;100522.66;;;20.05;78.18
48796;BME280;34607;48.520;-1.330;2023-04-29T13:48:23;100508.00;;;19.92;77.83
48796;BME280;34607;48.520;-1.330;2023-04-29T13:50:51;100517.75;;;20.29;77.51
48796;BME280;34607;48.520;-1.330;2023-04-29T13:53:23;100508.94;;;19.88;77.70
48796;BME280;34607;48.520;-1.330;2023-04-29T13:55:50;100521.66;;;20.11;77.02
48796;BME280;34607;48.520;-1.330;2023-04-29T13:58:17;100522.53;;;20.10;76.91
48796;BME280;34607;48.520;-1.330;2023-04-29T14:00:44;100519.75;;;20.17;77.22
48796;BME280;34607;48.520;-1.330;2023-04-29T14:03:12;100511.31;;;20.44;76.64
48796;BME280;34607;48.520;-1.330;2023-04-29T14:05:40;100503.00;;;20.64;76.20
48796;BME280;34607;48.520;-1.330;2023-04-29T14:08:08;100496.25;;;20.10;76.22
48796;BME280;34607;48.520;-1.330;2023-04-29T14:10:36;100511.31;;;20.44;77.28
48796;BME280;34607;48.520;-1.330;2023-04-29T14:13:03;100493.69;;;20.88;76.39
48796;BME280;34607;48.520;-1.330;2023-04-29T14:15:30;100499.28;;;21.10;75.56
48796;BME280;34607;48.520;-1.330;2023-04-29T14:17:57;100503.72;;;20.72;75.94
48796;BME280;34607;48.520;-1.330;2023-04-29T14:20:24;100505.25;;;19.98;77.04
48796;BME280;34607;48.520;-1.330;2023-04-29T14:22:51;100506.38;;;19.86;78.34
48796;BME280;34607;48.520;-1.330;2023-04-29T14:25:19;100500.63;;;20.11;78.08
48796;BME280;34607;48.520;-1.330;2023-04-29T14:27:46;100490.38;;;20.78;77.05
48796;BME280;34607;48.520;-1.330;2023-04-29T14:30:13;100487.22;;;21.36;74.69
48796;BME280;34607;48.520;-1.330;2023-04-29T14:32:41;100473.84;;;21.43;74.12
48796;BME280;34607;48.520;-1.330;2023-04-29T14:35:08;100484.22;;;21.15;74.69
48796;BME280;34607;48.520;-1.330;2023-04-29T14:37:35;100481.31;;;20.51;77.15
48796;BME280;34607;48.520;-1.330;2023-04-29T14:40:03;100487.75;;;19.97;78.70
48796;BME280;34607;48.520;-1.330;2023-04-29T14:42:32;100489.03;;;20.19;79.09
48796;BME280;34607;48.520;-1.330;2023-04-29T14:44:59;100482.00;;;20.62;76.97
48796;BME280;34607;48.520;-1.330;2023-04-29T14:47:26;100480.44;;;20.91;76.05
48796;BME280;34607;48.520;-1.330;2023-04-29T14:49:54;100467.97;;;20.99;75.54
48796;BME280;34607;48.520;-1.330;2023-04-29T14:52:21;100480.09;;;21.05;75.26
48796;BME280;34607;48.520;-1.330;2023-04-29T14:54:48;100476.28;;;21.17;74.82
48796;BME280;34607;48.520;-1.330;2023-04-29T14:57:15;100464.34;;;20.67;76.23
48796;BME280;34607;48.520;-1.330;2023-04-29T14:59:44;100466.41;;;20.12;76.98
48796;BME280;34607;48.520;-1.330;2023-04-29T15:02:11;100476.75;;;19.78;77.67
48796;BME280;34607;48.520;-1.330;2023-04-29T15:04:38;100473.53;;;20.07;77.31
48796;BME280;34607;48.520;-1.330;2023-04-29T15:07:10;100456.31;;;20.33;76.74
48796;BME280;34607;48.520;-1.330;2023-04-29T15:09:37;100455.28;;;20.40;76.75
48796;BME280;34607;48.520;-1.330;2023-04-29T15:12:04;100470.28;;;20.75;76.79
48796;BME280;34607;48.520;-1.330;2023-04-29T15:14:31;100461.06;;;20.54;76.38
48796;BME280;34607;48.520;-1.330;2023-04-29T15:17:00;100475.00;;;20.20;77.20
48796;BME280;34607;48.520;-1.330;2023-04-29T15:19:28;100478.28;;;19.88;78.31
48796;BME280;34607;48.520;-1.330;2023-04-29T15:21:55;100478.34;;;19.85;78.89
48796;BME280;34607;48.520;-1.330;2023-04-29T15:24:22;100482.28;;;20.06;77.66
48796;BME280;34607;48.520;-1.330;2023-04-29T15:26:49;100470.63;;;20.19;76.97
48796;BME280;34607;48.520;-1.330;2023-04-29T15:29:16;100472.72;;;20.44;77.29
48796;BME280;34607;48.520;-1.330;2023-04-29T15:31:44;100476.78;;;20.18;76.74
48796;BME280;34607;48.520;-1.330;2023-04-29T15:34:12;100445.59;;;19.56;77.27
48796;BME280;34607;48.520;-1.330;2023-04-29T15:36:40;100470.44;;;19.40;78.94
48796;BME280;34607;48.520;-1.330;2023-04-29T15:39:07;100487.31;;;19.75;78.30
48796;BME280;34607;48.520;-1.330;2023-04-29T15:41:35;100489.19;;;19.67;77.92
48796;BME280;34607;48.520;-1.330;2023-04-29T15:44:03;100477.25;;;19.50;78.10
48796;BME280;34607;48.520;-1.330;2023-04-29T15:46:30;100487.97;;;19.36;79.12
48796;BME280;34607;48.520;-1.330;2023-04-29T15:48:58;100485.66;;;19.19;79.41
48796;BME280;34607;48.520;-1.330;2023-04-29T15:51:26;100484.81;;;19.17;80.24
48796;BME280;34607;48.520;-1.330;2023-04-29T15:53:53;100494.06;;;19.40;79.98
48796;BME280;34607;48.520;-1.330;2023-04-29T15:56:23;100486.97;;;19.45;80.18
48796;BME280;34607;48.520;-1.330;2023-04-29T15:58:50;100495.44;;;19.59;79.82
48796;BME280;34607;48.520;-1.330;2023-04-29T16:01:18;100493.88;;;19.49;79.00
48796;BME280;34607;48.520;-1.330;2023-04-29T16:03:45;100491.84;;;19.65;78.57
48796;BME280;34607;48.520;-1.330;2023-04-29T16:06:14;100501.31;;;19.74;78.41
48796;BME280;34607;48.520;-1.330;2023-04-29T16:08:43;100499.34;;;19.87;77.67
48796;BME280;34607;48.520;-1.330;2023-04-29T16:11:11;100475.47;;;19.97;76.50
48796;BME280;34607;48.520;-1.330;2023-04-29T16:13:38;100480.06;;;20.30;75.75
48796;BME280;34607;48.520;-1.330;2023-04-29T16:16:06;100485.84;;;20.44;74.92
48796;BME280;34607;48.520;-1.330;2023-04-29T16:18:33;100482.44;;;20.40;75.95
48796;BME280;34607;48.520;-1.330;2023-04-29T16:21:00;100489.00;;;20.21;76.72
48796;BME280;34607;48.520;-1.330;2023-04-29T16:23:27;100487.88;;;19.91;77.21
48796;BME280;34607;48.520;-1.330;2023-04-29T16:25:55;100494.38;;;19.70;78.12
48796;BME280;34607;48.520;-1.330;2023-04-29T16:28:23;100501.94;;;19.40;78.57
48796;BME280;34607;48.520;-1.330;2023-04-29T16:30:50;100491.00;;;19.15;78.43
48796;BME280;34607;48.520;-1.330;2023-04-29T16:33:17;100493.09;;;18.93;78.96
48796;BME280;34607;48.520;-1.330;2023-04-29T16:35:45;100496.81;;;18.76;78.86
48796;BME280;34607;48.520;-1.330;2023-04-29T16:38:12;100498.66;;;18.69;79.47
48796;BME280;34607;48.520;-1.330;2023-04-29T16:40:39;100501.22;;;18.74;79.70
48796;BME280;34607;48.520;-1.330;2023-04-29T16:43:08;100491.50;;;18.79;79.58
48796;BME280;34607;48.520;-1.330;2023-04-29T16:45:39;100491.09;;;19.07;79.83
48796;BME280;34607;48.520;-1.330;2023-04-29T16:48:06;100498.41;;;19.41;81.11
48796;BME280;34607;48.520;-1.330;2023-04-29T16:50:34;100486.28;;;19.34;82.87
48796;BME280;34607;48.520;-1.330;2023-04-29T16:53:02;100474.03;;;19.33;83.75
48796;BME280;34607;48.520;-1.330;2023-04-29T16:55:29;100459.53;;;19.12;84.42
48796;BME280;34607;48.520;-1.330;2023-04-29T17:01:16;100476.69;;;18.77;83.96
48796;BME280;34607;48.520;-1.330;2023-04-29T17:03:44;100482.06;;;18.67;83.25
48796;BME280;34607;48.520;-1.330;2023-04-29T17:06:12;100484.91;;;18.52;82.97
48796;BME280;34607;48.520;-1.330;2023-04-29T17:08:43;100451.44;;;18.07;84.53
48796;BME280;34607;48.520;-1.330;2023-04-29T17:11:10;100485.31;;;18.24;87.71
48796;BME280;34607;48.520;-1.330;2023-04-29T17:13:37;100480.03;;;18.26;88.93
48796;BME280;34607;48.520;-1.330;2023-04-29T17:16:05;100464.50;;;18.12;nan
48796;BME280;34607;48.520;-1.330;2023-04-29T17:18:33;100481.88;;;18.19;90.78
48796;BME280;34607;48.520;-1.330;2023-04-29T17:21:04;100477.84;;;17.92;92.41
48796;BME280;34607;48.520;-1.330;2023-04-29T17:23:38;100474.38;;;17.90;93.04
48796;BME280;34607;48.520;-1.330;2023-04-29T17:26:05;100474.38;;;17.90;93.22
48796;BME280;34607;48.520;-1.330;2023-04-29T17:28:33;100482.25;;;17.90;93.28
48796;BME280;34607;48.520;-1.330;2023-04-29T17:31:00;100484.03;;;17.86;93.93
48796;BME280;34607;48.520;-1.330;2023-04-29T17:33:27;100478.88;;;17.77;94.83
48796;BME280;34607;48.520;-1.330;2023-04-29T17:36:00;100477.09;;;17.81;94.77
48796;BME280;34607;48.520;-1.330;2023-04-29T17:38:28;100490.19;;;17.79;94.50
48796;BME280;34607;48.520;-1.330;2023-04-29T17:40:57;100485.13;;;17.64;94.56
48796;BME280;34607;48.520;-1.330;2023-04-29T17:43:24;100482.66;;;17.47;95.26
48796;BME280;34607;48.520;-1.330;2023-04-29T17:45:51;100490.56;;;17.42;95.29
48796;BME280;34607;48.520;-1.330;2023-04-29T17:48:19;100492.44;;;17.29;95.93
48796;BME280;34607;48.520;-1.330;2023-04-29T17:50:47;100503.91;;;17.14;96.18
48796;BME280;34607;48.520;-1.330;2023-04-29T17:53:15;100491.03;;;16.83;97.10
48796;BME280;34607;48.520;-1.330;2023-04-29T17:55:42;100463.31;;;16.56;97.61
48796;BME280;34607;48.520;-1.330;2023-04-29T17:58:09;100473.00;;;16.39;97.80
48796;BME280;34607;48.520;-1.330;2023-04-29T18:00:36;100505.22;;;16.42;97.93
48796;BME280;34607;48.520;-1.330;2023-04-29T18:03:06;100516.59;;;16.31;98.73
48796;BME280;34607;48.520;-1.330;2023-04-29T18:05:33;100513.09;;;16.36;98.49
48796;BME280;34607;48.520;-1.330;2023-04-29T18:08:03;100500.16;;;16.08;98.89
48796;BME280;34607;48.520;-1.330;2023-04-29T18:10:32;100519.22;;;16.24;98.90
48796;BME280;34607;48.520;-1.330;2023-04-29T18:12:59;100512.31;;;16.17;98.72
48796;BME280;34607;48.520;-1.330;2023-04-29T18:15:27;100521.91;;;16.09;98.88
48796;BME280;34607;48.520;-1.330;2023-04-29T18:17:54;100524.59;;;15.90;99.48
48796;BME280;34607;48.520;-1.330;2023-04-29T18:20:22;100528.97;;;15.82;99.82
48796;BME280;34607;48.520;-1.330;2023-04-29T18:22:49;100526.34;;;15.67;100.00
48796;BME280;34607;48.520;-1.330;2023-04-29T18:25:16;100532.47;;;15.58;100.00
48796;BME280;34607;48.520;-1.330;2023-04-29T18:27:45;100532.47;;;15.47;100.00
48796;BME280;34607;48.520;-1.330;2023-04-29T18:30:27;100528.13;;;15.40;100.00
48796;BME280;34607;48.520;-1.330;2023-04-29T18:32:54;100540.31;;;15.41;100.00
48796;BME280;34607;48.520;-1.330;2023-04-29T18:35:22;100522.91;;;15.25;100.00
48796;BME280;34607;48.520;-1.330;2023-04-29T18:37:49;100529.88;;;15.26;100.00
48796;BME280;34607;48.520;-1.330;2023-04-29T18:40:16;100505.53;;;15.08;100.00
48796;BME280;34607;48.520;-1.330;2023-04-29T18:42:44;100526.41;;;15.25;100.00
48796;BME280;34607;48.520;-1.330;2023-04-29T18:45:11;100524.66;;;15.26;100.00
48796;BME280;34607;48.520;-1.330;2023-04-29T18:47:39;100533.34;;;15.28;100.00
48796;BME280;34607;48.520;-1.330;2023-04-29T18:50:06;100533.34;;;15.22;100.00
48796;BME280;34607;48.520;-1.330;2023-04-29T18:52:34;100520.31;;;15.20;100.00
48796;BME280;34607;48.520;-1.330;2023-04-29T18:55:01;100525.53;;;15.17;100.00
48796;BME280;34607;48.520;-1.330;2023-04-29T18:57:29;100533.34;;;15.19;100.00
48796;BME280;34607;48.520;-1.330;2023-04-29T18:59:57;100529.84;;;15.20;100.00
48796;BME280;34607;48.520;-1.330;2023-04-29T19:02:24;100508.09;;;14.99;100.00
48796;BME280;34607;48.520;-1.330;2023-04-29T19:04:51;100530.72;;;15.12;100.00
48796;BME280;34607;48.520;-1.330;2023-04-29T19:07:18;100538.53;;;15.08;100.00
48796;BME280;34607;48.520;-1.330;2023-04-29T19:09:45;100541.19;;;15.05;100.00
48796;BME280;34607;48.520;-1.330;2023-04-29T19:12:12;100539.44;;;15.05;100.00
48796;BME280;34607;48.520;-1.330;2023-04-29T19:14:39;100535.06;;;15.06;100.00
48796;BME280;34607;48.520;-1.330;2023-04-29T19:17:08;100532.47;;;15.06;100.00
48796;BME280;34607;48.520;-1.330;2023-04-29T19:19:35;100544.66;;;15.07;100.00
48796;BME280;34607;48.520;-1.330;2023-04-29T19:22:02;100536.81;;;15.05;100.00
48796;BME280;34607;48.520;-1.330;2023-04-29T19:24:30;100541.16;;;15.15;100.00
48796;BME280;34607;48.520;-1.330;2023-04-29T19:26:58;100546.41;;;15.17;100.00
48796;BME280;34607;48.520;-1.330;2023-04-29T19:29:25;100546.41;;;15.17;100.00
48796;BME280;34607;48.520;-1.330;2023-04-29T19:31:52;100534.22;;;15.07;100.00
48796;BME280;34607;48.520;-1.330;2023-04-29T19:34:21;100528.13;;;15.03;100.00
48796;BME280;34607;48.520;-1.330;2023-04-29T19:36:48;100547.25;;;15.14;100.00
48796;BME280;34607;48.520;-1.330;2023-04-29T19:39:15;100550.72;;;15.10;100.00
48796;BME280;34607;48.520;-1.330;2023-04-29T19:41:43;100562.03;;;15.09;100.00
48796;BME280;34607;48.520;-1.330;2023-04-29T19:44:10;100544.63;;;14.99;100.00
48796;BME280;34607;48.520;-1.330;2023-04-29T19:46:37;100548.13;;;15.00;100.00
48796;BME280;34607;48.520;-1.330;2023-04-29T19:49:05;100556.81;;;15.06;100.00
48796;BME280;34607;48.520;-1.330;2023-04-29T19:51:34;100562.91;;;15.05;100.00
48796;BME280;34607;48.520;-1.330;2023-04-29T19:54:01;100564.63;;;15.00;100.00
48796;BME280;34607;48.520;-1.330;2023-04-29T19:56:28;100569.81;;;14.88;100.00
48796;BME280;34607;48.520;-1.330;2023-04-29T19:58:55;100571.56;;;14.86;100.00
48796;BME280;34607;48.520;-1.330;2023-04-29T20:01:23;100578.50;;;14.84;100.00
48796;BME280;34607;48.520;-1.330;2023-04-29T20:04:02;100564.56;;;14.69;100.00
48796;BME280;34607;48.520;-1.330;2023-04-29T20:06:29;100579.34;;;14.76;100.00
48796;BME280;34607;48.520;-1.330;2023-04-29T20:08:58;100578.47;;;14.74;100.00
48796;BME280;34607;48.520;-1.330;2023-04-29T20:11:25;100581.94;;;14.76;100.00
48796;BME280;34607;48.520;-1.330;2023-04-29T20:13:52;100578.50;;;14.77;100.00
48796;BME280;34607;48.520;-1.330;2023-04-29T20:16:52;100577.59;;;14.77;100.00